sensor_id;sensor_type;location;lat;lon;timestamp;pressure;altitude;pressure_sealevel;temperature;humidity
41040;BME280;48586;50.122;18.972;2023-02-28T00:01:37;99709.72;;;1.30;42.83
41040;BME280;48586;50.122;18.972;2023-02-28T00:03:42;99709.22;;;1.26;42.86
41040;BME280;48586;50.122;18.972;2023-02-28T00:05:46;99706.97;;;1.21;43.05
41040;BME280;48586;50.122;18.972;2023-02-28T00:07:51;99710.88;;;1.17;43.04
41040;BME280;48586;50.122;18.972;2023-02-28T00:09:59;99711.44;;;1.11;42.80
41040;BME280;48586;50.122;18.972;2023-02-28T00:12:04;99715.19;;;1.09;43.46
41040;BME280;48586;50.122;18.972;2023-02-28T00:14:11;99726.09;;;1.04;43.25
41040;BME280;48586;50.122;18.972;2023-02-28T00:16:18;99720.84;;;1.04;42.72
41040;BME280;48586;50.122;18.972;2023-02-28T00:18:25;99719.19;;;1.03;42.39
41040;BME280;48586;50.122;18.972;2023-02-28T00:20:29;99723.59;;;1.03;42.52
41040;BME280;48586;50.122;18.972;2023-02-28T00:22:35;99725.25;;;1.04;42.20
41040;BME280;48586;50.122;18.972;2023-02-28T00:24:40;99729.69;;;1.03;42.08
41040;BME280;48586;50.122;18.972;2023-02-28T00:26:47;99724.44;;;1.03;42.11
41040;BME280;48586;50.122;18.972;2023-02-28T00:28:53;99724.31;;;1.05;42.33
41040;BME280;48586;50.122;18.972;2023-02-28T00:30:58;99726.94;;;1.05;42.42
41040;BME280;48586;50.122;18.972;2023-02-28T00:33:05;99722.22;;;1.08;42.36
41040;BME280;48586;50.122;18.972;2023-02-28T00:35:11;99722.75;;;1.12;43.03
41040;BME280;48586;50.122;18.972;2023-02-28T00:37:17;99731.03;;;1.17;43.40
41040;BME280;48586;50.122;18.972;2023-02-28T00:39:21;99728.97;;;1.20;43.05
41040;BME280;48586;50.122;18.972;2023-02-28T00:41:28;99732.13;;;1.24;42.82
41040;BME280;48586;50.122;18.972;2023-02-28T00:43:37;99732.69;;;1.28;43.10
41040;BME280;48586;50.122;18.972;2023-02-28T00:45:43;99731.03;;;1.27;42.96
41040;BME280;48586;50.122;18.972;2023-02-28T00:47:49;99728.25;;;1.28;42.75
41040;BME280;48586;50.122;18.972;2023-02-28T00:49:54;99728.97;;;1.30;42.55
41040;BME280;48586;50.122;18.972;2023-02-28T00:51:59;99732.41;;;1.31;42.68
41040;BME280;48586;50.122;18.972;2023-02-28T00:54:05;99727.28;;;1.29;42.90
41040;BME280;48586;50.122;18.972;2023-02-28T00:56:10;99743.72;;;1.31;43.17
41040;BME280;48586;50.122;18.972;2023-02-28T00:58:14;99740.56;;;1.28;43.12
41040;BME280;48586;50.122;18.972;2023-02-28T01:00:22;99738.09;;;1.26;43.24
41040;BME280;48586;50.122;18.972;2023-02-28T01:02:28;99735.59;;;1.25;43.40
41040;BME280;48586;50.122;18.972;2023-02-28T01:04:32;99729.22;;;1.27;43.14
41040;BME280;48586;50.122;18.972;2023-02-28T01:06:38;99734.59;;;1.26;42.70
41040;BME280;48586;50.122;18.972;2023-02-28T01:08:45;99731.16;;;1.25;42.98
41040;BME280;48586;50.122;18.972;2023-02-28T01:10:49;99724.41;;;1.22;43.39
41040;BME280;48586;50.122;18.972;2023-02-28T01:12:55;99725.22;;;1.23;43.37
41040;BME280;48586;50.122;18.972;2023-02-28T01:14:59;99725.06;;;1.25;43.39
41040;BME280;48586;50.122;18.972;2023-02-28T01:17:07;99727.69;;;1.25;43.67
41040;BME280;48586;50.122;18.972;2023-02-28T01:19:13;99727.69;;;1.25;43.14
41040;BME280;48586;50.122;18.972;2023-02-28T01:21:20;99721.09;;;1.20;43.29
41040;BME280;48586;50.122;18.972;2023-02-28T01:23:25;99720.97;;;1.22;43.40
41040;BME280;48586;50.122;18.972;2023-02-28T01:25:30;99724.69;;;1.19;43.30
41040;BME280;48586;50.122;18.972;2023-02-28T01:27:39;99721.50;;;1.16;43.42
41040;BME280;48586;50.122;18.972;2023-02-28T01:29:44;99707.84;;;1.12;43.64
41040;BME280;48586;50.122;18.972;2023-02-28T01:31:51;99713.25;;;1.11;43.75
41040;BME280;48586;50.122;18.972;2023-02-28T01:33:59;99716.13;;;1.08;43.49
41040;BME280;48586;50.122;18.972;2023-02-28T01:36:06;99709.41;;;1.05;43.43
41040;BME280;48586;50.122;18.972;2023-02-28T01:38:15;99707.88;;;1.03;43.59
41040;BME280;48586;50.122;18.972;2023-02-28T01:40:19;99709.13;;;0.98;43.34
41040;BME280;48586;50.122;18.972;2023-02-28T01:42:25;99694.22;;;0.89;43.66
41040;BME280;48586;50.122;18.972;2023-02-28T01:44:59;99701.94;;;0.91;43.72
41040;BME280;48586;50.122;18.972;2023-02-28T01:47:07;99704.31;;;0.84;43.97
41040;BME280;48586;50.122;18.972;2023-02-28T01:49:17;99702.13;;;0.80;44.00
41040;BME280;48586;50.122;18.972;2023-02-28T01:51:31;99702.38;;;0.77;44.41
41040;BME280;48586;50.122;18.972;2023-02-28T01:53:45;99704.44;;;0.73;44.14
41040;BME280;48586;50.122;18.972;2023-02-28T01:55:57;99706.53;;;0.69;44.19
41040;BME280;48586;50.122;18.972;2023-02-28T01:58:06;99708.72;;;0.64;44.60
41040;BME280;48586;50.122;18.972;2023-02-28T02:00:14;99710.94;;;0.59;44.10
41040;BME280;48586;50.122;18.972;2023-02-28T02:02:23;99706.94;;;0.55;44.54
41040;BME280;48586;50.122;18.972;2023-02-28T02:04:38;99709.16;;;0.50;44.67
41040;BME280;48586;50.122;18.972;2023-02-28T02:06:48;99714.56;;;0.49;44.77
41040;BME280;48586;50.122;18.972;2023-02-28T02:08:53;99708.03;;;0.43;44.88
41040;BME280;48586;50.122;18.972;2023-02-28T02:11:01;99707.38;;;0.41;45.03
41040;BME280;48586;50.122;18.972;2023-02-28T02:13:29;99706.94;;;0.36;45.19
41040;BME280;48586;50.122;18.972;2023-02-28T02:16:17;99702.94;;;0.32;45.13
41040;BME280;48586;50.122;18.972;2023-02-28T02:18:39;99698.38;;;0.24;45.65
41040;BME280;48586;50.122;18.972;2023-02-28T02:21:13;99701.16;;;0.23;45.67
41040;BME280;48586;50.122;18.972;2023-02-28T02:30:07;99697.81;;;0.11;45.84
41040;BME280;48586;50.122;18.972;2023-02-28T02:35:40;99697.50;;;0.04;45.80
41040;BME280;48586;50.122;18.972;2023-02-28T02:37:59;99693.66;;;-0.01;45.93
41040;BME280;48586;50.122;18.972;2023-02-28T02:40:16;99696.53;;;-0.05;46.13
41040;BME280;48586;50.122;18.972;2023-02-28T02:42:29;99699.56;;;-0.09;46.24
41040;BME280;48586;50.122;18.972;2023-02-28T02:44:48;99703.81;;;-0.08;46.79
41040;BME280;48586;50.122;18.972;2023-02-28T02:47:06;99701.19;;;-0.08;46.64
41040;BME280;48586;50.122;18.972;2023-02-28T02:49:20;99701.50;;;-0.11;46.51
41040;BME280;48586;50.122;18.972;2023-02-28T02:51:36;99701.06;;;-0.16;46.60
41040;BME280;48586;50.122;18.972;2023-02-28T02:53:51;99700.63;;;-0.21;46.73
41040;BME280;48586;50.122;18.972;2023-02-28T02:56:04;99697.59;;;-0.26;46.83
41040;BME280;48586;50.122;18.972;2023-02-28T02:58:16;99697.88;;;-0.30;46.86
41040;BME280;48586;50.122;18.972;2023-02-28T03:00:33;99701.41;;;-0.31;47.03
41040;BME280;48586;50.122;18.972;2023-02-28T03:02:43;99705.00;;;-0.32;47.06
41040;BME280;48586;50.122;18.972;2023-02-28T03:05:00;99705.00;;;-0.32;46.92
41040;BME280;48586;50.122;18.972;2023-02-28T03:07:11;99704.59;;;-0.37;46.75
41040;BME280;48586;50.122;18.972;2023-02-28T03:09:16;99707.19;;;-0.37;47.50
41040;BME280;48586;50.122;18.972;2023-02-28T03:11:21;99709.81;;;-0.37;47.17
41040;BME280;48586;50.122;18.972;2023-02-28T03:13:42;99705.56;;;-0.38;46.96
41040;BME280;48586;50.122;18.972;2023-02-28T03:16:17;99709.97;;;-0.38;47.18
41040;BME280;48586;50.122;18.972;2023-02-28T03:18:42;99709.09;;;-0.39;47.12
41040;BME280;48586;50.122;18.972;2023-02-28T03:21:06;99708.56;;;-0.42;46.87
41040;BME280;48586;50.122;18.972;2023-02-28T03:23:30;99716.69;;;-0.45;46.88
41040;BME280;48586;50.122;18.972;2023-02-28T03:25:56;99711.84;;;-0.50;47.03
41040;BME280;48586;50.122;18.972;2023-02-28T03:28:12;99711.41;;;-0.55;46.98
41040;BME280;48586;50.122;18.972;2023-02-28T03:30:26;99702.28;;;-0.61;47.16
41040;BME280;48586;50.122;18.972;2023-02-28T03:32:42;99701.84;;;-0.66;47.48
41040;BME280;48586;50.122;18.972;2023-02-28T03:35:01;99703.38;;;-0.63;47.88
41040;BME280;48586;50.122;18.972;2023-02-28T03:37:15;99705.28;;;-0.65;47.78
41040;BME280;48586;50.122;18.972;2023-02-28T03:39:34;99710.50;;;-0.65;48.25
41040;BME280;48586;50.122;18.972;2023-02-28T03:41:47;99713.84;;;-0.63;48.21
41040;BME280;48586;50.122;18.972;2023-02-28T03:44:02;99719.75;;;-0.61;48.53
41040;BME280;48586;50.122;18.972;2023-02-28T03:46:14;99714.28;;;-0.58;49.11
41040;BME280;48586;50.122;18.972;2023-02-28T03:48:30;99719.94;;;-0.53;48.71
41040;BME280;48586;50.122;18.972;2023-02-28T03:50:41;99721.72;;;-0.54;48.36
41040;BME280;48586;50.122;18.972;2023-02-28T03:52:53;99717.31;;;-0.53;48.29
41040;BME280;48586;50.122;18.972;2023-02-28T03:55:12;99725.31;;;-0.55;48.23
41040;BME280;48586;50.122;18.972;2023-02-28T03:57:26;99729.41;;;-0.62;47.83
41040;BME280;48586;50.122;18.972;2023-02-28T03:59:42;99731.34;;;-0.64;48.12
41040;BME280;48586;50.122;18.972;2023-02-28T04:01:50;99730.47;;;-0.64;48.58
41040;BME280;48586;50.122;18.972;2023-02-28T04:03:55;99733.38;;;-0.67;48.28
41040;BME280;48586;50.122;18.972;2023-02-28T04:06:01;99734.47;;;-0.70;48.71
41040;BME280;48586;50.122;18.972;2023-02-28T04:08:07;99731.00;;;-0.70;48.97
41040;BME280;48586;50.122;18.972;2023-02-28T04:10:15;99726.03;;;-0.73;48.66
41040;BME280;48586;50.122;18.972;2023-02-28T04:12:21;99735.41;;;-0.71;49.03
41040;BME280;48586;50.122;18.972;2023-02-28T04:14:25;99733.78;;;-0.72;48.67
41040;BME280;48586;50.122;18.972;2023-02-28T04:16:29;99741.19;;;-0.77;48.83
41040;BME280;48586;50.122;18.972;2023-02-28T04:18:34;99739.78;;;-0.81;48.89
41040;BME280;48586;50.122;18.972;2023-02-28T04:20:38;99736.00;;;-0.88;48.90
41040;BME280;48586;50.122;18.972;2023-02-28T04:22:42;99739.00;;;-0.93;49.25
41040;BME280;48586;50.122;18.972;2023-02-28T04:24:47;99742.69;;;-0.95;49.22
41040;BME280;48586;50.122;18.972;2023-02-28T04:26:55;99754.50;;;-1.01;49.26
41040;BME280;48586;50.122;18.972;2023-02-28T04:29:02;99748.13;;;-1.08;49.31
41040;BME280;48586;50.122;18.972;2023-02-28T04:31:09;99755.53;;;-1.13;49.79
41040;BME280;48586;50.122;18.972;2023-02-28T04:33:13;99755.75;;;-1.16;49.77
41040;BME280;48586;50.122;18.972;2023-02-28T04:35:17;99763.88;;;-1.19;50.33
41040;BME280;48586;50.122;18.972;2023-02-28T04:37:22;99755.44;;;-1.23;50.30
41040;BME280;48586;50.122;18.972;2023-02-28T04:39:29;99755.31;;;-1.21;50.41
41040;BME280;48586;50.122;18.972;2023-02-28T04:41:33;99760.44;;;-1.20;50.53
41040;BME280;48586;50.122;18.972;2023-02-28T04:43:40;99755.22;;;-1.20;50.91
41040;BME280;48586;50.122;18.972;2023-02-28T04:45:45;99754.63;;;-1.23;50.52
41040;BME280;48586;50.122;18.972;2023-02-28T04:47:49;99763.28;;;-1.23;50.88
41040;BME280;48586;50.122;18.972;2023-02-28T04:49:55;99748.56;;;-1.24;51.05
41040;BME280;48586;50.122;18.972;2023-02-28T04:51:59;99753.53;;;-1.21;51.38
41040;BME280;48586;50.122;18.972;2023-02-28T04:54:03;99748.88;;;-1.17;51.35
41040;BME280;48586;50.122;18.972;2023-02-28T04:56:11;99740.94;;;-1.16;51.56
41040;BME280;48586;50.122;18.972;2023-02-28T04:58:18;99748.41;;;-1.11;51.49
41040;BME280;48586;50.122;18.972;2023-02-28T05:00:27;99750.03;;;-1.10;51.02
41040;BME280;48586;50.122;18.972;2023-02-28T05:02:35;99758.00;;;-1.12;51.11
41040;BME280;48586;50.122;18.972;2023-02-28T05:04:39;99749.69;;;-1.17;51.06
41040;BME280;48586;50.122;18.972;2023-02-28T05:06:43;99751.72;;;-1.20;51.24
41040;BME280;48586;50.122;18.972;2023-02-28T05:08:48;99759.47;;;-1.19;51.21
41040;BME280;48586;50.122;18.972;2023-02-28T05:10:52;99749.97;;;-1.20;51.15
41040;BME280;48586;50.122;18.972;2023-02-28T05:12:56;99762.09;;;-1.19;51.44
41040;BME280;48586;50.122;18.972;2023-02-28T05:15:02;99759.34;;;-1.17;51.63
41040;BME280;48586;50.122;18.972;2023-02-28T05:17:09;99751.50;;;-1.17;51.67
41040;BME280;48586;50.122;18.972;2023-02-28T05:19:13;99754.00;;;-1.16;51.73
41040;BME280;48586;50.122;18.972;2023-02-28T05:21:30;99753.88;;;-1.14;51.80
41040;BME280;48586;50.122;18.972;2023-02-28T05:23:35;99753.72;;;-1.13;52.03
41040;BME280;48586;50.122;18.972;2023-02-28T05:25:40;99759.78;;;-1.12;51.68
41040;BME280;48586;50.122;18.972;2023-02-28T05:27:45;99760.75;;;-1.13;52.08
41040;BME280;48586;50.122;18.972;2023-02-28T05:29:49;99764.47;;;-1.16;51.75
41040;BME280;48586;50.122;18.972;2023-02-28T05:31:53;99764.94;;;-1.22;51.71
41040;BME280;48586;50.122;18.972;2023-02-28T05:34:01;99768.19;;;-1.30;51.85
41040;BME280;48586;50.122;18.972;2023-02-28T05:36:07;99777.34;;;-1.35;51.95
41040;BME280;48586;50.122;18.972;2023-02-28T05:38:11;99774.44;;;-1.42;52.28
41040;BME280;48586;50.122;18.972;2023-02-28T05:40:17;99779.75;;;-1.43;52.64
41040;BME280;48586;50.122;18.972;2023-02-28T05:42:21;99777.03;;;-1.42;52.69
41040;BME280;48586;50.122;18.972;2023-02-28T05:44:25;99780.00;;;-1.46;52.87
41040;BME280;48586;50.122;18.972;2023-02-28T05:46:33;99777.38;;;-1.46;53.11
41040;BME280;48586;50.122;18.972;2023-02-28T05:48:40;99779.91;;;-1.45;53.39
41040;BME280;48586;50.122;18.972;2023-02-28T05:50:50;99774.53;;;-1.43;53.27
41040;BME280;48586;50.122;18.972;2023-02-28T05:55:26;99778.69;;;-1.41;53.64
41040;BME280;48586;50.122;18.972;2023-02-28T05:57:31;99797.69;;;-1.39;53.25
41040;BME280;48586;50.122;18.972;2023-02-28T05:59:37;99792.22;;;-1.36;53.54
41040;BME280;48586;50.122;18.972;2023-02-28T06:01:43;99794.09;;;-1.38;52.95
41040;BME280;48586;50.122;18.972;2023-02-28T06:03:49;99791.75;;;-1.41;53.07
41040;BME280;48586;50.122;18.972;2023-02-28T06:05:56;99793.66;;;-1.43;53.43
41040;BME280;48586;50.122;18.972;2023-02-28T06:08:01;99793.06;;;-1.46;53.47
41040;BME280;48586;50.122;18.972;2023-02-28T06:10:10;99792.25;;;-1.47;53.87
41040;BME280;48586;50.122;18.972;2023-02-28T06:12:16;99799.38;;;-1.49;53.63
41040;BME280;48586;50.122;18.972;2023-02-28T06:14:21;99801.16;;;-1.49;53.74
41040;BME280;48586;50.122;18.972;2023-02-28T06:16:27;99806.41;;;-1.49;53.99
41040;BME280;48586;50.122;18.972;2023-02-28T06:18:33;99810.78;;;-1.50;53.88
41040;BME280;48586;50.122;18.972;2023-02-28T06:20:37;99804.84;;;-1.52;53.85
41040;BME280;48586;50.122;18.972;2023-02-28T06:22:46;99814.47;;;-1.52;54.31
41040;BME280;48586;50.122;18.972;2023-02-28T06:24:52;99812.59;;;-1.50;54.61
41040;BME280;48586;50.122;18.972;2023-02-28T06:26:58;99801.75;;;-1.46;54.81
41040;BME280;48586;50.122;18.972;2023-02-28T06:29:06;99810.75;;;-1.39;54.63
41040;BME280;48586;50.122;18.972;2023-02-28T06:31:14;99814.78;;;-1.35;54.14
41040;BME280;48586;50.122;18.972;2023-02-28T06:33:21;99815.38;;;-1.31;54.60
41040;BME280;48586;50.122;18.972;2023-02-28T06:35:26;99817.84;;;-1.30;54.23
41040;BME280;48586;50.122;18.972;2023-02-28T06:37:31;99823.56;;;-1.24;54.48
41040;BME280;48586;50.122;18.972;2023-02-28T06:39:39;99818.88;;;-1.21;54.59
41040;BME280;48586;50.122;18.972;2023-02-28T06:41:45;99821.03;;;-1.15;54.55
41040;BME280;48586;50.122;18.972;2023-02-28T06:43:54;99821.34;;;-1.08;54.25
41040;BME280;48586;50.122;18.972;2023-02-28T06:46:01;99814.78;;;-1.02;54.19
41040;BME280;48586;50.122;18.972;2023-02-28T06:48:10;99822.97;;;-0.96;54.02
41040;BME280;48586;50.122;18.972;2023-02-28T06:50:17;99821.75;;;-0.92;53.90
41040;BME280;48586;50.122;18.972;2023-02-28T06:52:23;99828.38;;;-0.88;53.88
41040;BME280;48586;50.122;18.972;2023-02-28T06:54:27;99830.63;;;-0.83;53.34
41040;BME280;48586;50.122;18.972;2023-02-28T06:56:35;99837.50;;;-0.82;53.62
41040;BME280;48586;50.122;18.972;2023-02-28T06:58:40;99832.03;;;-0.79;53.37
41040;BME280;48586;50.122;18.972;2023-02-28T07:00:45;99845.56;;;-0.74;53.43
41040;BME280;48586;50.122;18.972;2023-02-28T07:02:55;99838.28;;;-0.70;53.54
41040;BME280;48586;50.122;18.972;2023-02-28T07:05:00;99838.75;;;-0.65;53.41
41040;BME280;48586;50.122;18.972;2023-02-28T07:07:04;99837.53;;;-0.61;53.37
41040;BME280;48586;50.122;18.972;2023-02-28T07:09:09;99839.91;;;-0.58;53.00
41040;BME280;48586;50.122;18.972;2023-02-28T07:11:14;99846.78;;;-0.57;52.86
41040;BME280;48586;50.122;18.972;2023-02-28T07:13:22;99844.75;;;-0.54;52.85
41040;BME280;48586;50.122;18.972;2023-02-28T07:15:27;99843.69;;;-0.51;52.74
41040;BME280;48586;50.122;18.972;2023-02-28T07:17:32;99848.63;;;-0.48;52.88
41040;BME280;48586;50.122;18.972;2023-02-28T07:19:36;99847.56;;;-0.45;52.83
41040;BME280;48586;50.122;18.972;2023-02-28T07:21:41;99849.06;;;-0.43;52.63
41040;BME280;48586;50.122;18.972;2023-02-28T07:23:46;99855.84;;;-0.40;52.20
41040;BME280;48586;50.122;18.972;2023-02-28T07:25:50;99847.59;;;-0.36;52.48
41040;BME280;48586;50.122;18.972;2023-02-28T07:27:56;99855.78;;;-0.29;52.66
41040;BME280;48586;50.122;18.972;2023-02-28T07:30:05;99853.38;;;-0.21;52.17
41040;BME280;48586;50.122;18.972;2023-02-28T07:32:10;99852.69;;;-0.13;52.10
41040;BME280;48586;50.122;18.972;2023-02-28T07:34:15;99857.53;;;-0.09;51.48
41040;BME280;48586;50.122;18.972;2023-02-28T07:36:20;99858.81;;;-0.03;51.38
41040;BME280;48586;50.122;18.972;2023-02-28T07:38:25;99854.00;;;0.02;51.11
41040;BME280;48586;50.122;18.972;2023-02-28T07:40:30;99854.19;;;0.10;51.37
41040;BME280;48586;50.122;18.972;2023-02-28T07:42:35;99852.81;;;0.16;51.30
41040;BME280;48586;50.122;18.972;2023-02-28T07:44:39;99852.28;;;0.22;50.98
41040;BME280;48586;50.122;18.972;2023-02-28T07:46:47;99849.16;;;0.28;50.78
41040;BME280;48586;50.122;18.972;2023-02-28T07:48:51;99849.56;;;0.33;50.77
41040;BME280;48586;50.122;18.972;2023-02-28T07:51:01;99850.81;;;0.39;50.59
41040;BME280;48586;50.122;18.972;2023-02-28T07:53:07;99853.91;;;0.44;50.67
41040;BME280;48586;50.122;18.972;2023-02-28T07:55:13;99855.66;;;0.43;50.00
41040;BME280;48586;50.122;18.972;2023-02-28T07:57:18;99852.94;;;0.45;50.04
41040;BME280;48586;50.122;18.972;2023-02-28T07:59:23;99851.81;;;0.47;50.15
41040;BME280;48586;50.122;18.972;2023-02-28T08:01:28;99851.41;;;0.52;49.88
41040;BME280;48586;50.122;18.972;2023-02-28T08:03:35;99848.69;;;0.54;49.83
41040;BME280;48586;50.122;18.972;2023-02-28T08:05:42;99857.63;;;0.61;49.40
41040;BME280;48586;50.122;18.972;2023-02-28T08:07:49;99854.75;;;0.64;49.15
41040;BME280;48586;50.122;18.972;2023-02-28T08:09:54;99852.69;;;0.67;49.27
41040;BME280;48586;50.122;18.972;2023-02-28T08:11:59;99851.47;;;0.71;49.49
41040;BME280;48586;50.122;18.972;2023-02-28T08:18:00;99852.31;;;0.82;49.00
41040;BME280;48586;50.122;18.972;2023-02-28T08:20:10;99860.59;;;0.87;48.94
41040;BME280;48586;50.122;18.972;2023-02-28T08:22:15;99861.16;;;0.90;48.84
41040;BME280;48586;50.122;18.972;2023-02-28T08:24:20;99863.25;;;0.96;48.58
41040;BME280;48586;50.122;18.972;2023-02-28T08:26:25;99855.63;;;1.03;48.60
41040;BME280;48586;50.122;18.972;2023-02-28T08:28:32;99857.84;;;1.08;47.93
41040;BME280;48586;50.122;18.972;2023-02-28T08:30:36;99860.06;;;1.12;47.74
41040;BME280;48586;50.122;18.972;2023-02-28T08:32:42;99859.50;;;1.18;47.72
41040;BME280;48586;50.122;18.972;2023-02-28T08:34:48;99866.72;;;1.26;47.84
41040;BME280;48586;50.122;18.972;2023-02-28T08:36:55;99863.38;;;1.34;47.44
41040;BME280;48586;50.122;18.972;2023-02-28T08:39:01;99853.16;;;1.40;47.14
41040;BME280;48586;50.122;18.972;2023-02-28T08:41:08;99853.56;;;1.45;46.77
41040;BME280;48586;50.122;18.972;2023-02-28T08:46:23;99852.97;;;1.61;46.12
41040;BME280;48586;50.122;18.972;2023-02-28T08:48:32;99853.38;;;1.66;46.04
41040;BME280;48586;50.122;18.972;2023-02-28T08:50:38;99861.00;;;1.69;46.29
41040;BME280;48586;50.122;18.972;2023-02-28T08:52:46;99853.34;;;1.76;46.17
41040;BME280;48586;50.122;18.972;2023-02-28T08:54:51;99861.19;;;1.86;45.83
41040;BME280;48586;50.122;18.972;2023-02-28T08:56:57;99859.25;;;1.97;45.85
41040;BME280;48586;50.122;18.972;2023-02-28T08:59:04;99853.81;;;2.09;45.72
41040;BME280;48586;50.122;18.972;2023-02-28T09:01:11;99858.03;;;2.19;45.15
41040;BME280;48586;50.122;18.972;2023-02-28T09:03:17;99852.88;;;2.28;44.64
41040;BME280;48586;50.122;18.972;2023-02-28T09:05:22;99854.81;;;2.35;44.73
41040;BME280;48586;50.122;18.972;2023-02-28T09:07:27;99854.75;;;2.45;44.69
41040;BME280;48586;50.122;18.972;2023-02-28T09:09:34;99858.13;;;2.55;44.35
41040;BME280;48586;50.122;18.972;2023-02-28T09:11:56;99853.50;;;2.67;44.35
41040;BME280;48586;50.122;18.972;2023-02-28T09:14:01;99854.59;;;2.74;43.09
41040;BME280;48586;50.122;18.972;2023-02-28T09:16:11;99851.50;;;2.79;42.80
41040;BME280;48586;50.122;18.972;2023-02-28T09:18:19;99851.88;;;2.84;44.07
41040;BME280;48586;50.122;18.972;2023-02-28T09:20:24;99852.25;;;2.89;42.11
41040;BME280;48586;50.122;18.972;2023-02-28T09:22:29;99852.78;;;2.92;42.07
41040;BME280;48586;50.122;18.972;2023-02-28T09:24:37;99849.25;;;3.02;42.01
41040;BME280;48586;50.122;18.972;2023-02-28T09:26:42;99846.16;;;3.06;41.44
41040;BME280;48586;50.122;18.972;2023-02-28T09:28:47;99844.63;;;3.13;41.78
41040;BME280;48586;50.122;18.972;2023-02-28T09:30:54;99843.19;;;3.19;41.14
41040;BME280;48586;50.122;18.972;2023-02-28T09:32:59;99849.50;;;3.26;40.95
41040;BME280;48586;50.122;18.972;2023-02-28T09:35:05;99844.44;;;3.33;41.08
41040;BME280;48586;50.122;18.972;2023-02-28T09:37:15;99839.31;;;3.49;40.81
41040;BME280;48586;50.122;18.972;2023-02-28T09:39:21;99849.69;;;3.68;40.80
41040;BME280;48586;50.122;18.972;2023-02-28T09:41:38;99840.41;;;3.90;40.32
41040;BME280;48586;50.122;18.972;2023-02-28T09:43:54;99838.56;;;4.17;39.62
41040;BME280;48586;50.122;18.972;2023-02-28T09:46:08;99837.84;;;4.41;39.54
41040;BME280;48586;50.122;18.972;2023-02-28T09:48:26;99840.03;;;4.54;38.77
41040;BME280;48586;50.122;18.972;2023-02-28T09:50:41;99842.91;;;4.77;39.06
41040;BME280;48586;50.122;18.972;2023-02-28T09:52:51;99845.09;;;4.97;37.36
41040;BME280;48586;50.122;18.972;2023-02-28T09:55:20;99841.47;;;5.15;36.32
41040;BME280;48586;50.122;18.972;2023-02-28T09:57:38;99848.91;;;5.36;37.51
41040;BME280;48586;50.122;18.972;2023-02-28T09:59:57;99843.00;;;5.58;37.90
41040;BME280;48586;50.122;18.972;2023-02-28T10:02:41;99849.56;;;5.79;36.36
41040;BME280;48586;50.122;18.972;2023-02-28T10:05:09;99846.88;;;5.95;36.10
41040;BME280;48586;50.122;18.972;2023-02-28T10:07:30;99844.72;;;6.07;35.34
41040;BME280;48586;50.122;18.972;2023-02-28T10:09:54;99835.59;;;6.09;35.23
41040;BME280;48586;50.122;18.972;2023-02-28T10:12:05;99844.50;;;6.16;35.17
41040;BME280;48586;50.122;18.972;2023-02-28T10:14:18;99845.13;;;6.27;36.41
41040;BME280;48586;50.122;18.972;2023-02-28T10:16:31;99847.22;;;6.39;35.02
41040;BME280;48586;50.122;18.972;2023-02-28T10:18:46;99843.19;;;6.52;36.38
41040;BME280;48586;50.122;18.972;2023-02-28T10:20:56;99838.84;;;6.67;35.88
41040;BME280;48586;50.122;18.972;2023-02-28T10:23:07;99847.03;;;6.80;35.22
41040;BME280;48586;50.122;18.972;2023-02-28T10:25:20;99841.50;;;6.90;34.95
41040;BME280;48586;50.122;18.972;2023-02-28T10:27:30;99833.97;;;7.02;35.75
41040;BME280;48586;50.122;18.972;2023-02-28T10:29:42;99837.41;;;7.10;34.38
41040;BME280;48586;50.122;18.972;2023-02-28T10:31:48;99830.13;;;7.04;33.66
41040;BME280;48586;50.122;18.972;2023-02-28T10:33:52;99821.69;;;7.09;33.63
41040;BME280;48586;50.122;18.972;2023-02-28T10:35:57;99824.91;;;7.19;33.28
41040;BME280;48586;50.122;18.972;2023-02-28T10:38:15;99821.72;;;7.23;34.54
41040;BME280;48586;50.122;18.972;2023-02-28T10:40:33;99824.66;;;7.29;33.92
41040;BME280;48586;50.122;18.972;2023-02-28T10:42:38;99819.84;;;7.32;34.06
41040;BME280;48586;50.122;18.972;2023-02-28T10:44:46;99820.47;;;7.34;33.78
41040;BME280;48586;50.122;18.972;2023-02-28T10:46:51;99821.09;;;7.44;33.86
41040;BME280;48586;50.122;18.972;2023-02-28T10:49:02;99817.34;;;7.54;33.91
41040;BME280;48586;50.122;18.972;2023-02-28T10:51:12;99814.28;;;7.65;33.35
41040;BME280;48586;50.122;18.972;2023-02-28T10:53:30;99814.00;;;7.74;32.92
41040;BME280;48586;50.122;18.972;2023-02-28T10:55:37;99813.38;;;7.87;33.35
41040;BME280;48586;50.122;18.972;2023-02-28T10:57:42;99807.78;;;7.97;33.22
41040;BME280;48586;50.122;18.972;2023-02-28T10:59:50;99810.00;;;8.08;32.44
41040;BME280;48586;50.122;18.972;2023-02-28T11:01:56;99808.88;;;8.17;32.68
41040;BME280;48586;50.122;18.972;2023-02-28T11:04:02;99810.25;;;8.28;33.45
41040;BME280;48586;50.122;18.972;2023-02-28T11:06:14;99805.53;;;8.45;32.83
41040;BME280;48586;50.122;18.972;2023-02-28T11:08:21;99799.19;;;8.61;33.35
41040;BME280;48586;50.122;18.972;2023-02-28T11:10:30;99803.84;;;8.73;32.40
41040;BME280;48586;50.122;18.972;2023-02-28T11:12:38;99787.22;;;8.86;32.25
41040;BME280;48586;50.122;18.972;2023-02-28T11:14:52;99787.13;;;9.01;31.72
41040;BME280;48586;50.122;18.972;2023-02-28T11:17:13;99790.50;;;9.10;31.00
41040;BME280;48586;50.122;18.972;2023-02-28T11:19:26;99784.25;;;9.17;30.96
41040;BME280;48586;50.122;18.972;2023-02-28T11:21:37;99786.78;;;9.25;30.48
41040;BME280;48586;50.122;18.972;2023-02-28T11:23:43;99781.31;;;9.34;31.38
41040;BME280;48586;50.122;18.972;2023-02-28T11:25:51;99770.81;;;9.25;28.61
41040;BME280;48586;50.122;18.972;2023-02-28T11:28:00;99775.31;;;9.25;30.56
41040;BME280;48586;50.122;18.972;2023-02-28T11:30:27;99766.78;;;9.36;30.16
41040;BME280;48586;50.122;18.972;2023-02-28T11:32:34;99762.59;;;9.48;30.58
41040;BME280;48586;50.122;18.972;2023-02-28T11:34:40;99761.25;;;9.59;30.03
41040;BME280;48586;50.122;18.972;2023-02-28T11:36:45;99757.25;;;9.77;30.64
41040;BME280;48586;50.122;18.972;2023-02-28T11:38:51;99762.88;;;9.95;30.78